Time;durP1;ratioP1;P1;durP2;ratioP2;P2;SDS_P1;SDS_P2;PMS_P1;PMS_P2;Temp;Humidity;BMP_temperature;BMP_pressure;BME280_temperature;BME280_humidity;BME280_pressure;Samples;Min_cycle;Max_cycle;Signal;HPM_P1;HPM_P2
2023/05/21 00:02:18;;;;;;;15.50;9.50;;;;;;;14.68;80.05;101490.97;105913;1261;98407;-85
2023/05/21 00:05:05;;;;;;;11.20;9.20;;;;;;;14.63;80.22;101489.41;105962;1259;102140;-85
2023/05/21 00:07:53;;;;;;;12.10;9.10;;;;;;;14.59;80.46;101487.98;105996;1260;100424;-87
2023/05/21 00:10:39;;;;;;;10.70;8.90;;;;;;;14.57;80.10;101488.77;105806;1260;97889;-88
2023/05/21 00:13:25;;;;;;;15.40;9.30;;;;;;;14.55;80.35;101484.69;105868;1259;97983;-88
2023/05/21 00:16:10;;;;;;;11.20;8.70;;;;;;;14.54;80.30;101481.03;105968;1259;97926;-86
2023/05/21 00:18:56;;;;;;;13.40;9.50;;;;;;;14.51;80.75;101476.69;105996;1263;102067;-87
2023/05/21 00:21:44;;;;;;;14.20;10.20;;;;;;;14.49;81.23;101477.85;105974;1263;100374;-88
2023/05/21 00:24:30;;;;;;;14.00;9.80;;;;;;;14.47;81.28;101478.90;106072;1259;97993;-86
2023/05/21 00:27:15;;;;;;;12.20;9.00;;;;;;;14.45;81.23;101476.02;105866;1259;97880;-87
2023/05/21 00:30:02;;;;;;;11.10;9.50;;;;;;;14.42;81.22;101475.67;105941;1267;98807;-88
2023/05/21 00:32:48;;;;;;;11.60;9.20;;;;;;;14.39;81.33;101480.27;105968;1260;101356;-88
2023/05/21 00:35:34;;;;;;;15.60;9.50;;;;;;;14.34;81.66;101482.83;105750;1268;99810;-87
2023/05/21 00:38:20;;;;;;;11.30;9.00;;;;;;;14.29;81.86;101484.73;105913;1266;98972;-89
2023/05/21 00:41:06;;;;;;;12.80;9.40;;;;;;;14.22;81.61;101485.56;105977;1259;97879;-85
2023/05/21 00:43:52;;;;;;;12.90;9.80;;;;;;;14.17;81.44;101487.14;105980;1264;98390;-84
2023/05/21 00:46:39;;;;;;;11.80;9.50;;;;;;;14.10;81.80;101487.06;105879;1262;103439;-86
2023/05/21 00:49:24;;;;;;;12.40;8.80;;;;;;;14.03;81.75;101484.05;106026;1259;100404;-86
2023/05/21 00:52:10;;;;;;;12.70;9.30;;;;;;;13.98;81.55;101485.04;105919;1264;97962;-86
2023/05/21 00:54:56;;;;;;;10.40;9.10;;;;;;;13.93;81.88;101488.98;105976;1259;98379;-85
2023/05/21 00:57:42;;;;;;;14.50;8.80;;;;;;;13.88;82.04;101486.48;106001;1259;97940;-86
2023/05/21 01:00:28;;;;;;;11.30;9.20;;;;;;;13.87;82.09;101486.01;106080;1259;101336;-88
2023/05/21 01:03:15;;;;;;;12.60;9.50;;;;;;;13.86;82.21;101489.48;105806;1259;99926;-88
2023/05/21 01:06:03;;;;;;;13.00;9.00;;;;;;;13.84;82.17;101484.70;105962;1262;98474;-88
2023/05/21 01:08:49;;;;;;;13.10;10.00;;;;;;;13.82;82.80;101485.19;105974;1259;97882;-85
2023/05/21 01:11:41;;;;;;;13.70;9.30;;;;;;;13.79;82.68;101480.55;106070;1265;97765;-86
2023/05/21 01:14:27;;;;;;;12.30;9.70;;;;;;;13.78;82.58;101482.82;105803;1259;102612;-86
2023/05/21 01:17:14;;;;;;;16.00;10.20;;;;;;;13.76;82.97;101480.11;106021;1259;100346;-88
2023/05/21 01:20:00;;;;;;;14.70;9.60;;;;;;;13.73;83.07;101476.78;105937;1259;99151;-89
2023/05/21 01:22:54;;;;;;;16.10;9.30;;;;;;;13.69;83.17;101475.78;105885;1268;97999;-88
2023/05/21 01:25:41;;;;;;;13.70;9.70;;;;;;;13.64;83.41;101472.23;106170;1259;98473;-88
2023/05/21 01:28:28;;;;;;;15.70;9.80;;;;;;;13.63;83.72;101470.59;106190;1259;102181;-88
2023/05/21 01:31:40;;;;;;;13.50;10.40;;;;;;;13.63;83.76;101471.34;106168;1259;99261;-86
2023/05/21 01:34:37;;;;;;;12.80;9.60;;;;;;;13.61;83.86;101472.34;106375;1264;98088;-87
2023/05/21 01:37:33;;;;;;;12.00;8.70;;;;;;;13.59;84.13;101470.41;106263;1260;98126;-86
2023/05/21 01:40:25;;;;;;;12.30;8.70;;;;;;;13.56;84.02;101471.32;105877;1267;98422;-86
2023/05/21 01:43:13;;;;;;;13.10;8.80;;;;;;;13.51;84.37;101475.48;105978;1262;101453;-86
2023/05/21 01:46:00;;;;;;;17.00;10.20;;;;;;;13.45;84.18;101472.45;105938;1265;100378;-84
2023/05/21 01:48:47;;;;;;;12.50;9.30;;;;;;;13.39;84.33;101472.27;106023;1265;99246;-87
2023/05/21 01:51:34;;;;;;;11.30;8.50;;;;;;;13.34;84.38;101470.73;105891;1268;97961;-88
2023/05/21 01:54:20;;;;;;;12.00;9.10;;;;;;;13.31;84.76;101468.45;106052;1259;98389;-87
2023/05/21 01:57:06;;;;;;;15.20;9.50;;;;;;;13.27;84.93;101468.77;105952;1259;101334;-86
2023/05/21 01:59:52;;;;;;;11.20;9.30;;;;;;;13.25;85.11;101470.40;105955;1265;99173;-87
2023/05/21 02:02:38;;;;;;;15.30;8.90;;;;;;;13.26;85.11;101474.63;105910;1259;99085;-86
2023/05/21 02:05:24;;;;;;;16.80;9.30;;;;;;;13.23;85.04;101472.63;105725;1267;97940;-87
2023/05/21 02:08:11;;;;;;;11.70;8.60;;;;;;;13.22;85.22;101470.63;105918;1262;97988;-86
2023/05/21 02:10:57;;;;;;;12.70;8.60;;;;;;;13.18;85.16;101468.79;105916;1260;101934;-86
2023/05/21 02:13:44;;;;;;;11.00;8.60;;;;;;;13.13;85.28;101471.07;105928;1260;99095;-86
2023/05/21 02:16:30;;;;;;;9.90;8.70;;;;;;;13.12;85.64;101472.99;105894;1265;98125;-87
2023/05/21 02:19:16;;;;;;;10.30;8.20;;;;;;;13.11;85.33;101470.86;105828;1261;97973;-87
2023/05/21 02:22:02;;;;;;;11.50;8.60;;;;;;;13.08;85.29;101468.91;106049;1263;98117;-86
2023/05/21 02:24:48;;;;;;;15.00;9.50;;;;;;;13.05;85.72;101467.95;106042;1262;101374;-87
2023/05/21 02:27:37;;;;;;;9.80;8.00;;;;;;;13.02;85.59;101466.80;106016;1263;99151;-87
2023/05/21 02:30:22;;;;;;;10.80;8.60;;;;;;;13.02;85.47;101468.69;106040;1265;98990;-88
2023/05/21 02:33:07;;;;;;;12.00;8.80;;;;;;;13.00;85.37;101464.57;105984;1259;97847;-85
2023/05/21 02:35:53;;;;;;;11.60;9.00;;;;;;;12.99;85.45;101465.59;105901;1260;97813;-87
2023/05/21 02:38:42;;;;;;;13.40;8.70;;;;;;;12.97;85.31;101466.01;105968;1265;102193;-87
2023/05/21 02:41:28;;;;;;;12.70;9.20;;;;;;;12.97;85.30;101461.61;105964;1262;99166;-85
2023/05/21 02:44:13;;;;;;;13.70;9.70;;;;;;;12.94;85.37;101457.63;106011;1266;98060;-85
2023/05/21 02:46:59;;;;;;;10.60;9.10;;;;;;;12.89;85.28;101451.02;105872;1267;97889;-86
2023/05/21 02:49:45;;;;;;;10.70;8.80;;;;;;;12.88;85.32;101451.70;105970;1260;97895;-86
2023/05/21 02:52:31;;;;;;;12.60;9.80;;;;;;;12.88;85.53;101448.27;105936;1259;102078;-86
2023/05/21 02:55:17;;;;;;;13.90;9.10;;;;;;;12.88;85.58;101447.93;106043;1265;99227;-85
2023/05/21 02:58:03;;;;;;;11.20;9.20;;;;;;;12.87;85.62;101447.38;106019;1268;97869;-87
2023/05/21 03:00:52;;;;;;;14.00;9.10;;;;;;;12.85;85.69;101445.27;105781;1259;99279;-87
2023/05/21 03:03:37;;;;;;;12.10;9.50;;;;;;;12.84;85.69;101444.77;106009;1260;98575;-85
2023/05/21 03:06:23;;;;;;;11.30;9.20;;;;;;;12.82;85.57;101443.48;105878;1259;102664;-86
2023/05/21 03:09:09;;;;;;;10.90;9.30;;;;;;;12.79;85.80;101440.59;105841;1261;100898;-85
2023/05/21 03:11:55;;;;;;;12.30;8.60;;;;;;;12.75;86.15;101439.77;105909;1265;98124;-86
2023/05/21 03:14:45;;;;;;;12.20;9.00;;;;;;;12.73;86.15;101433.65;105928;1262;98076;-86
2023/05/21 03:17:32;;;;;;;11.70;9.10;;;;;;;12.73;86.36;101430.41;105987;1264;97881;-87
2023/05/21 03:20:18;;;;;;;10.70;8.60;;;;;;;12.72;86.40;101429.05;105967;1265;102619;-85
2023/05/21 03:23:04;;;;;;;12.30;9.00;;;;;;;12.69;86.59;101430.48;105768;1262;99105;-87
2023/05/21 03:25:50;;;;;;;11.70;8.80;;;;;;;12.66;86.82;101431.76;105987;1265;98116;-85
2023/05/21 03:28:36;;;;;;;10.60;8.10;;;;;;;12.65;86.95;101433.89;105911;1265;97932;-86
2023/05/21 03:31:23;;;;;;;11.90;8.50;;;;;;;12.62;87.14;101435.08;105965;1265;98492;-87
2023/05/21 03:34:27;;;;;;;15.10;8.60;;;;;;;12.62;87.31;101436.92;105929;1263;102592;-86
2023/05/21 03:37:13;;;;;;;13.70;8.50;;;;;;;12.63;87.58;101435.55;106048;1260;100348;-87
2023/05/21 03:39:59;;;;;;;11.10;9.50;;;;;;;12.63;87.50;101440.17;105932;1259;98466;-87
2023/05/21 03:42:45;;;;;;;13.60;8.80;;;;;;;12.63;87.71;101441.59;105827;1260;98065;-85
2023/05/21 03:45:31;;;;;;;11.80;8.40;;;;;;;12.64;87.87;101440.11;105950;1265;98435;-86
2023/05/21 03:48:43;;;;;;;9.00;7.40;;;;;;;12.67;87.87;101440.66;105762;1260;102610;-86
2023/05/21 03:51:30;;;;;;;9.40;8.20;;;;;;;12.70;88.01;101440.92;105997;1261;100364;-86
2023/05/21 03:54:17;;;;;;;12.30;7.90;;;;;;;12.74;88.18;101443.02;106013;1267;97971;-86
2023/05/21 03:57:05;;;;;;;11.50;7.90;;;;;;;12.78;88.37;101445.54;105938;1266;98045;-86
2023/05/21 03:59:51;;;;;;;13.40;8.00;;;;;;;12.83;88.22;101446.06;105922;1260;97908;-87
2023/05/21 04:02:36;;;;;;;14.20;8.40;;;;;;;12.88;88.20;101441.69;105925;1259;101343;-86
2023/05/21 04:05:22;;;;;;;10.90;8.10;;;;;;;12.93;88.28;101441.39;105870;1260;99195;-86
2023/05/21 04:08:08;;;;;;;9.90;7.50;;;;;;;12.99;88.27;101442.30;105826;1268;99121;-86
2023/05/21 04:10:54;;;;;;;10.50;7.40;;;;;;;13.06;88.38;101440.08;105919;1267;97980;-86
2023/05/21 04:13:40;;;;;;;9.80;7.70;;;;;;;13.12;88.51;101436.76;105903;1264;97784;-87
2023/05/21 04:16:26;;;;;;;12.10;7.70;;;;;;;13.20;88.19;101432.31;105958;1266;101358;-86
2023/05/21 04:19:12;;;;;;;12.40;7.20;;;;;;;13.26;88.16;101429.98;105923;1262;100381;-86
2023/05/21 04:21:58;;;;;;;11.30;7.20;;;;;;;13.31;88.29;101429.64;105951;1259;99005;-86
2023/05/21 04:24:45;;;;;;;9.10;6.90;;;;;;;13.36;88.19;101432.69;105931;1259;97966;-87
2023/05/21 04:27:37;;;;;;;7.90;7.00;;;;;;;13.41;88.25;101431.17;105907;1265;97909;-85
2023/05/21 04:30:23;;;;;;;16.70;7.20;;;;;;;13.48;88.30;101431.95;106015;1261;101331;-85
2023/05/21 04:33:09;;;;;;;10.80;6.30;;;;;;;13.55;88.44;101431.02;105993;1268;99776;-85
2023/05/21 04:35:55;;;;;;;10.20;6.40;;;;;;;13.62;88.02;101428.45;105985;1266;99297;-86
2023/05/21 04:38:41;;;;;;;10.80;6.70;;;;;;;13.67;88.01;101424.88;105988;1267;97968;-86
2023/05/21 04:41:27;;;;;;;9.80;7.10;;;;;;;13.74;88.02;101424.16;105992;1265;98181;-88
2023/05/21 04:44:13;;;;;;;8.90;7.00;;;;;;;13.80;87.99;101421.41;105970;1266;101345;-88
2023/05/21 04:46:59;;;;;;;11.70;6.50;;;;;;;13.87;87.76;101420.84;105974;1259;99089;-89
2023/05/21 04:49:49;;;;;;;9.00;6.60;;;;;;;13.92;87.31;101420.48;105984;1266;99013;-88
2023/05/21 04:52:35;;;;;;;9.00;6.20;;;;;;;13.97;87.15;101416.70;105879;1263;97982;-86
2023/05/21 04:55:21;;;;;;;10.10;6.70;;;;;;;14.03;87.45;101414.64;106044;1264;98530;-86
2023/05/21 04:58:11;;;;;;;8.70;6.20;;;;;;;14.11;87.44;101414.70;105996;1260;101353;-87
2023/05/21 05:00:56;;;;;;;10.10;5.90;;;;;;;14.20;86.99;101420.27;105973;1266;99259;-87
2023/05/21 05:03:44;;;;;;;8.70;5.60;;;;;;;14.29;86.80;101421.80;105889;1268;107632;-86
2023/05/21 05:06:30;;;;;;;8.60;5.50;;;;;;;14.37;86.70;101420.83;105954;1259;97943;-85
2023/05/21 05:09:17;;;;;;;10.20;6.40;;;;;;;14.48;86.71;101421.27;106010;1263;98500;-85
2023/05/21 05:12:03;;;;;;;10.40;5.90;;;;;;;14.59;86.82;101417.45;106082;1267;101318;-86
2023/05/21 05:14:50;;;;;;;11.10;5.60;;;;;;;14.72;86.61;101416.98;105742;1260;99173;-85
2023/05/21 05:17:36;;;;;;;9.50;5.50;;;;;;;14.83;86.25;101415.47;105921;1260;99009;-86
2023/05/21 05:20:22;;;;;;;8.40;5.40;;;;;;;14.94;86.05;101417.52;105956;1260;97976;-86
2023/05/21 05:23:08;;;;;;;11.40;5.20;;;;;;;15.06;85.41;101416.27;105836;1265;98140;-85
2023/05/21 05:25:54;;;;;;;10.80;5.80;;;;;;;15.15;84.83;101412.93;105911;1265;101372;-85
2023/05/21 05:28:40;;;;;;;6.30;4.60;;;;;;;15.26;84.91;101408.15;105851;1265;100377;-85
2023/05/21 05:31:26;;;;;;;10.30;4.90;;;;;;;15.38;84.45;101411.05;106002;1261;99011;-87
2023/05/21 05:34:12;;;;;;;6.70;4.80;;;;;;;15.50;84.18;101414.22;105942;1260;97888;-86
2023/05/21 05:36:58;;;;;;;5.60;4.60;;;;;;;15.62;83.78;101412.31;105935;1261;98216;-86
2023/05/21 05:39:44;;;;;;;7.10;5.30;;;;;;;15.72;82.89;101412.20;105871;1261;101304;-86
2023/05/21 05:42:30;;;;;;;7.00;4.70;;;;;;;15.82;82.18;101414.23;105788;1260;100002;-87
2023/05/21 05:45:18;;;;;;;5.80;3.90;;;;;;;15.93;82.31;101414.38;106090;1265;97768;-84
2023/05/21 05:48:03;;;;;;;7.10;4.30;;;;;;;16.07;82.33;101414.55;106171;1265;99465;-86
2023/05/21 05:50:53;;;;;;;8.20;4.60;;;;;;;16.20;81.54;101417.34;106163;1266;97605;-87
2023/05/21 05:53:39;;;;;;;5.70;4.40;;;;;;;16.32;80.84;101411.71;106121;1266;101386;-86
2023/05/21 05:56:25;;;;;;;7.90;4.40;;;;;;;16.44;79.93;101412.52;106202;1265;100378;-87
2023/05/21 05:59:11;;;;;;;8.10;4.10;;;;;;;16.54;79.89;101408.98;105926;1265;98461;-87
2023/05/21 06:01:57;;;;;;;6.00;3.90;;;;;;;16.65;79.58;101407.96;105878;1266;97956;-88
2023/05/21 06:04:43;;;;;;;5.70;4.00;;;;;;;16.77;79.53;101404.48;105989;1265;97868;-87
2023/05/21 06:07:29;;;;;;;5.50;3.60;;;;;;;16.89;79.01;101404.11;105970;1260;103563;-86
2023/05/21 06:10:16;;;;;;;5.80;3.80;;;;;;;17.01;78.96;101407.02;105934;1265;99115;-86
2023/05/21 06:13:02;;;;;;;7.50;3.80;;;;;;;17.14;78.40;101407.96;105865;1268;99504;-85
2023/05/21 06:15:48;;;;;;;5.70;3.90;;;;;;;17.26;78.03;101407.37;105763;1263;99277;-85
2023/05/21 06:18:34;;;;;;;4.90;3.60;;;;;;;17.37;77.17;101409.52;106297;1267;97980;-87
2023/05/21 06:21:20;;;;;;;5.80;3.60;;;;;;;17.47;76.41;101410.84;105985;1265;164032;-89
2023/05/21 06:24:06;;;;;;;4.40;3.20;;;;;;;17.58;75.93;101413.23;106260;1268;99207;-91
2023/05/21 06:26:52;;;;;;;5.50;3.50;;;;;;;17.70;75.99;101411.45;106348;1261;97977;-89
2023/05/21 06:30:02;;;;;;;6.70;3.40;;;;;;;17.82;75.34;101412.96;106401;1260;97097;-90
2023/05/21 06:32:48;;;;;;;4.40;3.10;;;;;;;17.93;74.83;101412.50;105806;1260;98393;-85
2023/05/21 06:35:35;;;;;;;4.30;3.50;;;;;;;18.02;74.41;101410.79;105976;1264;103731;-88
2023/05/21 06:38:21;;;;;;;4.70;3.40;;;;;;;18.11;73.62;101411.54;105988;1260;99096;-88
2023/05/21 06:41:10;;;;;;;4.80;3.00;;;;;;;18.20;73.10;101412.84;105878;1266;98054;-87
2023/05/21 06:44:06;;;;;;;6.60;3.00;;;;;;;18.29;72.94;101410.94;105754;1264;98100;-83
2023/05/21 06:47:11;;;;;;;4.20;2.80;;;;;;;18.41;73.28;101404.58;106009;1265;97928;-88
2023/05/21 06:49:58;;;;;;;4.90;3.10;;;;;;;18.51;72.44;101402.91;106103;1266;102254;-88
2023/05/21 06:52:44;;;;;;;4.70;3.20;;;;;;;18.61;71.47;101403.34;106054;1261;99393;-90
2023/05/21 06:55:29;;;;;;;3.60;3.20;;;;;;;18.71;71.21;101403.17;105817;1267;98006;-87
2023/05/21 06:58:34;;;;;;;6.80;3.40;;;;;;;18.80;70.64;101393.30;105985;1266;97990;-83
2023/05/21 07:01:21;;;;;;;5.30;2.90;;;;;;;18.91;70.32;101387.27;105981;1261;98024;-82
2023/05/21 07:04:13;;;;;;;3.20;2.90;;;;;;;19.04;70.33;101385.61;105719;1261;101352;-83
2023/05/21 07:07:00;;;;;;;6.40;2.90;;;;;;;19.13;69.35;101382.81;105913;1264;99228;-81
2023/05/21 07:09:49;;;;;;;5.50;2.90;;;;;;;19.21;69.41;101374.75;105867;1261;98560;-83
2023/05/21 07:12:46;;;;;;;;;;;;;;;;;;;;;
2023/05/21 07:15:55;;;;;;;5.40;3.00;;;;;;;19.40;68.25;101372.80;105888;1261;98569;-77
2023/05/21 07:18:41;;;;;;;7.30;3.10;;;;;;;19.48;68.28;101370.48;105609;1264;101412;-77
2023/05/21 07:21:27;;;;;;;6.40;2.90;;;;;;;19.57;67.54;101372.01;105308;1264;99155;-79
2023/05/21 07:24:12;;;;;;;6.50;2.90;;;;;;;19.65;66.80;101367.15;105310;1260;98076;-79
2023/05/21 07:26:59;;;;;;;3.60;2.80;;;;;;;19.72;66.05;101366.76;105242;1264;97949;-78
2023/05/21 07:29:48;;;;;;;5.20;2.90;;;;;;;19.81;65.98;101364.35;105215;1266;98463;-78
2023/05/21 07:32:34;;;;;;;5.00;2.30;;;;;;;19.92;65.90;101361.15;105546;1263;101499;-87
2023/05/21 07:35:20;;;;;;;9.50;2.70;;;;;;;20.03;65.08;101358.01;105662;1261;99190;-84
2023/05/21 07:38:06;;;;;;;4.30;2.80;;;;;;;20.12;64.92;101356.57;105537;1264;98537;-81
2023/05/21 07:40:52;;;;;;;5.30;2.50;;;;;;;20.22;64.14;101356.27;105875;1265;98005;-82
2023/05/21 07:43:38;;;;;;;5.50;2.20;;;;;;;20.30;63.43;101356.88;106058;1266;98588;-82
2023/05/21 07:46:24;;;;;;;5.40;2.70;;;;;;;20.39;62.84;101354.27;105647;1260;101357;-82
2023/05/21 07:49:15;;;;;;;5.50;2.20;;;;;;;20.49;62.56;101354.95;106142;1260;100292;-85
2023/05/21 07:52:03;;;;;;;5.10;2.50;;;;;;;20.58;62.25;101352.04;106075;1264;98043;-80
2023/05/21 07:54:49;;;;;;;13.50;2.20;;;;;;;20.67;60.51;101353.64;105841;1261;97880;-81
2023/05/21 07:57:35;;;;;;;2.70;2.00;;;;;;;20.75;59.26;101356.00;106109;1260;97998;-81
2023/05/21 08:00:26;;;;;;;2.90;2.10;;;;;;;20.82;59.04;101353.95;105844;1264;102612;-85
2023/05/21 08:03:16;;;;;;;3.50;1.60;;;;;;;20.90;59.45;101352.45;105784;1267;99201;-84
2023/05/21 08:06:02;;;;;;;2.00;1.90;;;;;;;21.01;58.42;101354.38;105655;1260;98483;-85
2023/05/21 08:08:48;;;;;;;4.90;1.90;;;;;;;21.11;57.06;101354.71;105835;1261;98630;-85
2023/05/21 08:11:34;;;;;;;4.00;2.20;;;;;;;21.22;56.71;101353.45;105617;1267;97974;-77
2023/05/21 08:14:20;;;;;;;6.30;1.80;;;;;;;21.31;55.46;101352.99;105255;1260;101389;-78
2023/05/21 08:17:10;;;;;;;3.80;2.10;;;;;;;21.38;54.06;101347.32;105671;1264;100009;-80
2023/05/21 08:19:55;;;;;;;2.60;2.00;;;;;;;21.46;54.05;101352.35;105171;1265;98977;-78
2023/05/21 08:22:42;;;;;;;3.30;1.60;;;;;;;21.56;54.13;101351.41;105287;1260;98848;-83
2023/05/21 08:25:28;;;;;;;2.60;1.50;;;;;;;21.60;53.07;101354.50;105735;1267;99564;-81
2023/05/21 08:28:14;;;;;;;3.20;1.30;;;;;;;21.64;52.52;101354.02;105876;1261;102099;-81
2023/05/21 08:31:00;;;;;;;6.00;1.90;;;;;;;21.68;52.48;101351.22;106029;1261;100465;-83
2023/05/21 08:33:53;;;;;;;9.40;2.00;;;;;;;21.72;51.90;101350.61;105901;1260;98038;-83
2023/05/21 08:36:44;;;;;;;4.90;1.70;;;;;;;21.75;51.26;101344.89;105869;1261;98053;-82
2023/05/21 08:39:44;;;;;;;3.30;1.80;;;;;;;21.83;51.26;101349.38;107208;1262;97875;-82
2023/05/21 08:42:42;;;;;;;3.40;1.40;;;;;;;21.91;51.17;101344.59;106069;1261;102237;-79
2023/05/21 08:45:36;;;;;;;2.70;1.70;;;;;;;21.98;51.18;101347.66;105895;1261;99150;-79
2023/05/21 08:48:22;;;;;;;3.70;2.00;;;;;;;22.02;50.64;101346.77;105314;1264;98457;-78
2023/05/21 08:51:08;;;;;;;2.00;1.60;;;;;;;22.08;51.23;101345.84;105370;1260;98006;-84
2023/05/21 08:54:00;;;;;;;3.00;2.00;;;;;;;22.17;51.19;101346.72;106106;1264;98147;-84
2023/05/21 08:56:48;;;;;;;3.40;1.80;;;;;;;22.24;50.99;101342.89;105902;1261;101352;-82
2023/05/21 08:59:36;;;;;;;3.10;1.80;;;;;;;22.32;50.80;101339.41;105881;1261;99088;-83
2023/05/21 09:02:26;;;;;;;6.40;1.80;;;;;;;22.37;50.20;101339.91;105819;1260;98421;-86
2023/05/21 09:05:15;;;;;;;2.60;1.60;;;;;;;22.42;49.30;101339.80;106048;1260;97931;-86
2023/05/21 09:08:06;;;;;;;3.30;1.80;;;;;;;22.45;49.79;101337.63;105791;1267;97974;-88
2023/05/21 09:11:02;;;;;;;5.10;1.70;;;;;;;22.55;49.46;101337.45;106082;1260;102771;-86
2023/05/21 09:13:53;;;;;;;4.10;1.80;;;;;;;22.64;49.45;101335.62;106052;1261;100650;-86
2023/05/21 09:16:47;;;;;;;2.80;1.60;;;;;;;22.73;50.00;101334.69;105822;1264;98017;-84
2023/05/21 09:19:34;;;;;;;5.90;2.10;;;;;;;22.81;49.52;101331.91;105933;1260;98058;-88
2023/05/21 09:22:22;;;;;;;3.30;2.00;;;;;;;22.85;48.68;101329.63;105889;1260;97874;-82
2023/05/21 09:25:10;;;;;;;3.20;1.90;;;;;;;22.90;48.82;101329.70;105783;1260;101376;-84
2023/05/21 09:27:59;;;;;;;3.30;1.80;;;;;;;22.97;48.03;101328.34;105820;1263;99385;-87
2023/05/21 09:30:47;;;;;;;5.40;1.90;;;;;;;23.04;46.83;101326.80;105884;1264;97962;-83
2023/05/21 09:33:33;;;;;;;2.70;1.80;;;;;;;23.06;46.60;101328.52;105769;1264;98136;-82
2023/05/21 09:36:20;;;;;;;2.60;1.90;;;;;;;23.02;46.11;101324.08;106299;1260;98465;-81
2023/05/21 09:39:06;;;;;;;4.50;1.40;;;;;;;23.00;46.42;101322.52;105982;1264;101475;-81
2023/05/21 09:41:52;;;;;;;3.00;2.10;;;;;;;23.02;46.70;101323.66;106090;1260;100383;-81
2023/05/21 09:44:39;;;;;;;2.00;1.80;;;;;;;23.03;46.60;101315.90;105993;1264;98035;-81
2023/05/21 09:47:24;;;;;;;4.90;2.40;;;;;;;23.10;46.66;101311.30;106076;1260;97904;-82
2023/05/21 09:50:25;;;;;;;3.40;2.00;;;;;;;23.17;47.22;101317.58;105901;1264;98485;-81
2023/05/21 09:53:14;;;;;;;5.40;2.60;;;;;;;23.20;46.63;101316.14;105924;1261;101359;-81
2023/05/21 09:56:00;;;;;;;3.30;2.80;;;;;;;23.24;46.80;101316.91;106040;1260;99078;-80
2023/05/21 09:58:46;;;;;;;3.90;2.40;;;;;;;23.29;46.74;101313.11;106430;1262;97768;-81
2023/05/21 10:01:34;;;;;;;3.10;2.00;;;;;;;23.37;47.08;101309.90;106157;1264;98021;-81
2023/05/21 10:04:21;;;;;;;3.60;2.10;;;;;;;23.46;47.80;101310.57;106156;1264;97874;-81
2023/05/21 10:07:07;;;;;;;5.70;1.90;;;;;;;23.54;46.11;101309.20;106038;1261;103279;-81
2023/05/21 10:09:57;;;;;;;4.00;2.10;;;;;;;23.61;45.37;101306.38;105980;1261;99252;-81
2023/05/21 10:12:44;;;;;;;3.80;1.90;;;;;;;23.65;45.05;101305.49;106019;1264;97966;-81
2023/05/21 10:15:36;;;;;;;4.70;1.90;;;;;;;23.66;45.25;101302.51;105893;1261;97965;-81
2023/05/21 10:18:22;;;;;;;3.20;1.90;;;;;;;23.69;45.50;101300.79;106053;1261;97884;-81
2023/05/21 10:21:08;;;;;;;4.30;2.10;;;;;;;23.76;44.70;101300.05;106055;1260;102765;-81
2023/05/21 10:23:56;;;;;;;4.00;2.20;;;;;;;23.82;44.50;101290.09;106103;1264;100348;-80
2023/05/21 10:26:43;;;;;;;3.30;2.40;;;;;;;23.90;45.11;101292.70;105968;1264;99015;-80
2023/05/21 10:29:30;;;;;;;4.10;1.80;;;;;;;23.95;43.69;101292.20;106052;1264;97877;-81
2023/05/21 10:32:15;;;;;;;11.30;2.00;;;;;;;23.99;42.29;101293.95;105971;1260;98482;-79
2023/05/21 10:35:01;;;;;;;3.50;1.90;;;;;;;23.97;41.09;101286.42;106048;1264;101939;-80
2023/05/21 10:37:48;;;;;;;9.30;2.80;;;;;;;23.95;41.52;101285.90;105940;1260;108929;-80
2023/05/21 10:40:34;;;;;;;2.50;2.00;;;;;;;23.92;41.58;101290.86;105985;1264;98285;-81
2023/05/21 10:43:37;;;;;;;3.10;1.50;;;;;;;23.95;41.70;101281.63;105999;1261;98711;-81
2023/05/21 10:47:04;;;;;;;6.80;2.40;;;;;;;24.04;41.96;101281.55;106032;1260;99000;-80
2023/05/21 10:50:25;;;;;;;4.70;1.80;;;;;;;24.15;41.69;101283.13;106052;1264;101925;-81
2023/05/21 10:53:33;;;;;;;3.20;2.10;;;;;;;24.20;42.26;101284.05;105925;1266;99230;-80
2023/05/21 10:56:23;;;;;;;3.60;2.20;;;;;;;24.24;42.00;101283.71;106130;1261;98472;-81
2023/05/21 10:59:20;;;;;;;6.70;2.60;;;;;;;24.26;41.66;101272.84;105950;1261;98594;-81
2023/05/21 11:02:08;;;;;;;5.40;3.10;;;;;;;24.31;40.50;101271.11;106047;1263;98417;-81
2023/05/21 11:05:00;;;;;;;5.30;2.20;;;;;;;24.34;39.35;101269.45;107949;1256;102171;31
2023/05/21 11:07:55;;;;;;;5.90;2.20;;;;;;;24.35;40.16;101270.98;106379;1259;99846;-83
2023/05/21 11:10:43;;;;;;;3.60;2.00;;;;;;;24.37;40.79;101269.42;106263;1263;97966;-85
2023/05/21 11:13:47;;;;;;;2.70;2.10;;;;;;;24.40;40.34;101265.16;105613;1263;98387;-80
2023/05/21 11:16:35;;;;;;;3.30;2.20;;;;;;;24.41;40.13;101258.18;106013;1259;98457;-87
2023/05/21 11:19:38;;;;;;;3.60;2.00;;;;;;;24.42;40.48;101259.00;107430;1251;102634;31
2023/05/21 11:22:27;;;;;;;5.70;2.30;;;;;;;24.45;40.85;101262.74;105765;1265;99106;-79
2023/05/21 11:25:14;;;;;;;3.70;1.80;;;;;;;24.50;40.58;101263.34;105933;1259;99329;-84
2023/05/21 11:28:05;;;;;;;9.00;2.50;;;;;;;24.58;40.94;101262.84;105588;1260;97883;-85
2023/05/21 11:31:26;;;;;;;2.30;1.90;;;;;;;24.60;40.61;101259.23;106005;1265;97751;-86
2023/05/21 11:34:18;;;;;;;;;;;;;;;24.55;40.51;101258.42;105861;1281;102674;-86
2023/05/21 11:40:18;;;;;;;7.40;2.20;;;;;;;24.56;39.83;101253.19;105667;1262;97978;-79
2023/05/21 11:43:03;;;;;;;2.30;2.10;;;;;;;24.65;39.68;101249.26;105727;1259;97992;-79
2023/05/21 11:46:11;;;;;;;2.60;2.10;;;;;;;24.65;40.02;101249.96;107019;1255;98649;31
2023/05/21 11:48:57;;;;;;;3.70;2.10;;;;;;;24.69;39.86;101245.00;107555;1257;101473;-80
2023/05/21 11:51:43;;;;;;;4.20;2.10;;;;;;;24.78;40.15;101247.65;106322;1266;99200;-82
2023/05/21 11:54:35;;;;;;;4.50;2.00;;;;;;;24.85;40.15;101243.55;106123;1263;97976;-86
2023/05/21 11:57:22;;;;;;;6.30;2.20;;;;;;;24.96;39.61;101240.98;105923;1261;98520;-86
2023/05/21 12:00:15;;;;;;;3.20;2.40;;;;;;;25.00;39.41;101242.38;106056;1266;97959;-80
2023/05/21 12:03:02;;;;;;;3.50;1.80;;;;;;;25.07;38.77;101245.48;105375;1265;101933;-78
2023/05/21 12:05:53;;;;;;;2.80;2.10;;;;;;;25.06;39.50;101241.90;106965;1262;97893;-79
2023/05/21 12:08:39;;;;;;;7.50;2.40;;;;;;;25.12;39.75;101242.98;105361;1264;98530;-79
2023/05/21 12:11:26;;;;;;;4.60;2.40;;;;;;;25.16;39.13;101240.09;105385;1260;97936;-78
2023/05/21 12:14:12;;;;;;;5.80;2.40;;;;;;;25.16;38.60;101235.66;105992;1264;98542;-80
2023/05/21 12:16:58;;;;;;;4.00;1.90;;;;;;;25.25;38.85;101235.80;105741;1261;101476;-79
2023/05/21 12:19:44;;;;;;;9.00;2.40;;;;;;;25.39;38.24;101239.37;105366;1261;99140;-78
2023/05/21 12:22:30;;;;;;;5.80;2.00;;;;;;;25.47;38.25;101238.04;105213;1267;98982;-77
2023/05/21 12:25:19;;;;;;;2.40;1.90;;;;;;;25.45;38.01;101232.77;105204;1267;97974;-78
2023/05/21 12:28:05;;;;;;;6.10;2.30;;;;;;;25.48;38.57;101231.52;105336;1263;99269;-78
2023/05/21 12:30:52;;;;;;;6.10;2.00;;;;;;;25.58;38.87;101232.11;105159;1264;101361;-78
2023/05/21 12:33:37;;;;;;;4.20;2.00;;;;;;;25.68;38.12;101231.68;105180;1261;100455;-79
2023/05/21 12:36:29;;;;;;;2.60;2.20;;;;;;;25.72;38.43;101232.35;105382;1263;98630;-84
2023/05/21 12:39:15;;;;;;;5.50;2.30;;;;;;;25.77;38.31;101231.05;106403;1261;98044;-85
2023/05/21 12:42:01;;;;;;;7.00;2.90;;;;;;;25.81;38.13;101222.48;105809;1263;98175;-79
2023/05/21 12:44:47;;;;;;;6.20;2.90;;;;;;;25.86;38.41;101220.46;106094;1260;102218;-87
2023/05/21 12:47:33;;;;;;;3.50;2.70;;;;;;;25.94;38.02;101216.57;105956;1261;99110;-87
2023/05/21 12:50:20;;;;;;;4.80;2.30;;;;;;;25.98;37.42;101220.69;105774;1260;98466;-83
2023/05/21 12:53:10;;;;;;;6.50;2.10;;;;;;;25.97;37.41;101222.66;105941;1260;98066;-91
2023/05/21 12:56:40;;;;;;;6.20;2.50;;;;;;;25.91;36.67;101214.92;105881;1263;97926;-86